Time;durP1;ratioP1;P1;durP2;ratioP2;P2;SDS_P1;SDS_P2;PMS_P1;PMS_P2;Temp;Humidity;BMP_temperature;BMP_pressure;BME280_temperature;BME280_humidity;BME280_pressure;Samples;Min_cycle;Max_cycle;Signal;HPM_P1;HPM_P2
2021/04/24 00:00:58;;;;;;;1.30;0.50;;;23.70;35.20;;;;;;5043450;28;20498;-53
2021/04/24 00:03:24;;;;;;;2.05;0.30;;;23.70;35.30;;;;;;5048520;28;20025;-54
2021/04/24 00:05:50;;;;;;;0.80;0.25;;;23.70;35.30;;;;;;5047977;28;20036;-53
2021/04/24 00:08:16;;;;;;;1.10;0.50;;;23.70;35.30;;;;;;5047592;28;20031;-53
2021/04/24 00:10:44;;;;;;;1.40;0.32;;;23.70;35.20;;;;;;5043805;28;20028;-52
2021/04/24 00:13:12;;;;;;;1.27;0.30;;;23.70;35.30;;;;;;5046845;28;20432;-54
2021/04/24 00:15:39;;;;;;;0.85;0.32;;;23.70;35.30;;;;;;5042227;28;20025;-54
2021/04/24 00:18:06;;;;;;;1.60;0.20;;;23.70;35.30;;;;;;5047546;28;20033;-53
2021/04/24 00:20:32;;;;;;;1.38;0.30;;;23.70;35.40;;;;;;5049294;28;20025;-53
2021/04/24 00:22:58;;;;;;;1.10;0.20;;;23.60;35.30;;;;;;5050171;28;20182;-54
2021/04/24 00:25:23;;;;;;;0.80;0.30;;;23.60;35.40;;;;;;5049342;28;20033;-54
2021/04/24 00:27:50;;;;;;;2.45;0.40;;;23.60;35.20;;;;;;5048731;28;20037;-53
2021/04/24 00:30:17;;;;;;;0.90;0.30;;;23.60;35.30;;;;;;5031305;28;20036;-54
2021/04/24 00:32:43;;;;;;;1.92;0.20;;;23.60;35.30;;;;;;5038769;28;20512;-54
2021/04/24 00:35:10;;;;;;;0.65;0.25;;;23.60;35.30;;;;;;5046718;28;20033;-53
2021/04/24 00:37:36;;;;;;;0.95;0.20;;;23.60;35.20;;;;;;5046572;28;20033;-53
2021/04/24 00:40:02;;;;;;;0.98;0.30;;;23.50;35.30;;;;;;5046150;28;20040;-53
2021/04/24 00:42:27;;;;;;;1.90;0.50;;;23.60;35.30;;;;;;5035072;28;20025;-54
2021/04/24 00:44:55;;;;;;;1.40;0.40;;;23.50;35.20;;;;;;5047340;28;20116;-53
2021/04/24 00:47:21;;;;;;;0.60;0.20;;;23.50;35.20;;;;;;5046121;28;20033;-53
2021/04/24 00:49:47;;;;;;;1.27;0.30;;;23.50;35.20;;;;;;5048203;28;20037;-53
2021/04/24 00:52:14;;;;;;;2.35;0.20;;;23.50;35.20;;;;;;5047655;28;20474;-54
2021/04/24 00:54:40;;;;;;;0.75;0.30;;;23.50;35.30;;;;;;5042472;28;20108;-53
2021/04/24 00:57:07;;;;;;;1.55;0.38;;;23.50;35.30;;;;;;5038324;28;20030;-53
2021/04/24 00:59:36;;;;;;;1.08;0.30;;;23.50;35.20;;;;;;5051714;28;20037;-53
2021/04/24 01:02:03;;;;;;;0.80;0.30;;;23.50;35.20;;;;;;5051557;28;20486;-54
2021/04/24 01:04:29;;;;;;;0.60;0.20;;;23.50;35.20;;;;;;5038462;28;20025;-54
2021/04/24 01:06:55;;;;;;;0.52;0.20;;;23.50;35.20;;;;;;5049172;28;20162;-54
2021/04/24 01:09:20;;;;;;;2.42;0.20;;;23.40;35.20;;;;;;5047667;28;20028;-53
2021/04/24 01:11:46;;;;;;;0.77;0.30;;;23.50;35.20;;;;;;5051543;28;20025;-53
2021/04/24 01:14:12;;;;;;;2.17;0.30;;;23.40;35.10;;;;;;5050882;28;20025;-53
2021/04/24 01:16:37;;;;;;;0.70;0.30;;;23.40;35.20;;;;;;5051228;28;20041;-54
2021/04/24 01:19:04;;;;;;;1.25;0.30;;;23.40;35.20;;;;;;5047311;28;20175;-53
2021/04/24 01:21:30;;;;;;;1.00;0.30;;;23.40;35.20;;;;;;5051146;28;20143;-51
2021/04/24 01:23:56;;;;;;;4.15;0.22;;;23.40;35.20;;;;;;5048453;28;20021;-49
2021/04/24 01:26:22;;;;;;;1.27;0.20;;;23.40;35.20;;;;;;5051502;28;20048;-53
2021/04/24 01:28:48;;;;;;;0.85;0.30;;;23.30;35.00;;;;;;5051097;28;20029;-53
2021/04/24 01:31:15;;;;;;;1.45;0.50;;;23.30;35.10;;;;;;5046688;28;20033;-53
2021/04/24 01:33:41;;;;;;;1.02;0.20;;;23.40;35.20;;;;;;5048322;28;20033;-54
2021/04/24 01:36:06;;;;;;;0.57;0.20;;;23.30;35.10;;;;;;5051040;28;20052;-53
2021/04/24 01:38:32;;;;;;;1.50;0.28;;;23.30;35.20;;;;;;5048142;28;20045;-53
2021/04/24 01:40:58;;;;;;;0.88;0.40;;;23.30;35.10;;;;;;5051242;28;20597;-53
2021/04/24 01:43:24;;;;;;;0.65;0.20;;;23.30;35.20;;;;;;5047682;28;20196;-53
2021/04/24 01:45:49;;;;;;;0.88;0.30;;;23.30;35.10;;;;;;5050862;28;20111;-53
2021/04/24 01:48:16;;;;;;;1.15;0.30;;;23.30;35.20;;;;;;5050238;28;20103;-52
2021/04/24 01:50:44;;;;;;;0.68;0.20;;;23.30;35.10;;;;;;5042917;28;20037;-53
2021/04/24 01:53:16;;;;;;;0.50;0.20;;;23.30;35.10;;;;;;5040775;28;20496;-52
2021/04/24 01:55:42;;;;;;;1.25;0.20;;;23.30;35.10;;;;;;5050903;28;20032;-52
2021/04/24 01:58:11;;;;;;;0.50;0.20;;;23.20;35.10;;;;;;5048233;28;20039;-52
2021/04/24 02:00:43;;;;;;;0.70;0.20;;;23.20;35.00;;;;;;5051090;28;20033;-53
2021/04/24 02:03:11;;;;;;;0.73;0.30;;;23.20;35.10;;;;;;5046147;28;20665;-52
2021/04/24 02:05:37;;;;;;;0.65;0.20;;;23.20;35.00;;;;;;5050697;28;20025;-54
2021/04/24 02:08:07;;;;;;;1.63;0.20;;;23.20;35.10;;;;;;5047656;28;20040;-52
2021/04/24 02:10:35;;;;;;;1.17;0.30;;;23.20;35.00;;;;;;5049987;28;20107;-54
2021/04/24 02:13:04;;;;;;;0.43;0.20;;;23.20;35.10;;;;;;5043686;28;20473;-52
2021/04/24 02:15:30;;;;;;;1.02;0.20;;;23.20;35.00;;;;;;5050346;28;20025;-49
2021/04/24 02:17:55;;;;;;;0.65;0.15;;;23.10;35.00;;;;;;5047382;28;20035;-53
2021/04/24 02:20:22;;;;;;;0.98;0.10;;;23.10;35.00;;;;;;5050856;28;20068;-53
2021/04/24 02:22:47;;;;;;;0.60;0.20;;;23.10;35.00;;;;;;5040041;28;20029;-52
2021/04/24 02:25:15;;;;;;;0.82;0.20;;;23.10;35.00;;;;;;5037737;28;20079;-53
2021/04/24 02:27:41;;;;;;;0.95;0.20;;;23.10;35.00;;;;;;5049138;28;20732;-53
2021/04/24 02:30:11;;;;;;;0.60;0.20;;;23.10;35.00;;;;;;5050967;28;20036;-52
2021/04/24 02:32:38;;;;;;;0.45;0.20;;;23.10;35.00;;;;;;5045942;28;20037;-54
2021/04/24 02:35:06;;;;;;;0.50;0.30;;;23.10;35.00;;;;;;5049402;28;20021;-53
2021/04/24 02:37:33;;;;;;;2.03;0.20;;;23.10;35.00;;;;;;5047355;28;20049;-53
2021/04/24 02:39:59;;;;;;;0.50;0.20;;;23.10;35.00;;;;;;5050708;28;20047;-54
2021/04/24 02:42:28;;;;;;;0.77;0.13;;;23.10;35.00;;;;;;5043206;28;20032;-51
2021/04/24 02:44:58;;;;;;;0.40;0.20;;;23.10;35.00;;;;;;5045241;28;20025;-52
2021/04/24 02:47:25;;;;;;;0.57;0.20;;;23.00;35.00;;;;;;5049660;28;20052;-51
2021/04/24 02:49:51;;;;;;;0.90;0.20;;;23.00;35.00;;;;;;5049765;28;20036;-52
2021/04/24 02:52:17;;;;;;;0.88;0.20;;;23.00;35.00;;;;;;5044522;28;20029;-53
2021/04/24 02:54:43;;;;;;;0.80;0.28;;;23.00;34.90;;;;;;5038508;28;20494;-51
2021/04/24 02:57:09;;;;;;;0.68;0.20;;;23.00;34.90;;;;;;5048512;28;20033;-53
2021/04/24 02:59:35;;;;;;;0.63;0.20;;;23.00;34.90;;;;;;5048244;28;20017;-54
2021/04/24 03:02:00;;;;;;;0.50;0.10;;;23.00;35.00;;;;;;5049523;28;20036;-54
2021/04/24 03:04:26;;;;;;;2.10;0.28;;;23.00;34.90;;;;;;5047846;28;20027;-54
2021/04/24 03:06:52;;;;;;;0.50;0.30;;;23.00;35.00;;;;;;5044463;28;20034;-54
2021/04/24 03:09:18;;;;;;;0.60;0.28;;;23.00;35.00;;;;;;5048565;28;20051;-52
2021/04/24 03:11:44;;;;;;;0.60;0.20;;;22.90;34.90;;;;;;5045864;28;20037;-54
2021/04/24 03:14:11;;;;;;;0.77;0.10;;;22.90;34.90;;;;;;5043377;28;20041;-53
2021/04/24 03:16:38;;;;;;;0.60;0.10;;;22.90;34.90;;;;;;5046696;28;20056;-54
2021/04/24 03:19:06;;;;;;;0.68;0.20;;;22.90;35.00;;;;;;5048214;28;20013;-53
2021/04/24 03:21:32;;;;;;;0.57;0.20;;;22.90;34.90;;;;;;5043759;28;20048;-53
2021/04/24 03:23:58;;;;;;;1.00;0.10;;;22.90;34.90;;;;;;5045220;28;20028;-54
2021/04/24 03:26:24;;;;;;;2.08;0.20;;;22.90;35.00;;;;;;5042486;28;20490;-54
2021/04/24 03:28:50;;;;;;;0.90;0.20;;;22.90;35.00;;;;;;5048364;28;20079;-54
2021/04/24 03:31:16;;;;;;;0.45;0.10;;;22.90;35.00;;;;;;5040711;28;20041;-51
2021/04/24 03:33:43;;;;;;;0.35;0.10;;;22.90;35.00;;;;;;5048646;28;20553;-52
2021/04/24 03:36:10;;;;;;;1.02;0.40;;;22.90;35.00;;;;;;5044863;28;20036;-52
2021/04/24 03:38:35;;;;;;;0.90;0.20;;;22.90;34.90;;;;;;5046424;28;20029;-52
2021/04/24 03:41:03;;;;;;;1.50;0.20;;;22.90;35.00;;;;;;5040397;28;20083;-53
2021/04/24 03:43:29;;;;;;;0.82;0.20;;;22.90;34.90;;;;;;5049149;28;20040;-53
2021/04/24 03:45:54;;;;;;;1.35;0.10;;;22.90;35.00;;;;;;5042957;28;20061;-53
2021/04/24 03:48:20;;;;;;;1.25;0.20;;;22.80;34.90;;;;;;5038220;28;20029;-54
2021/04/24 03:50:46;;;;;;;0.65;0.15;;;22.80;34.90;;;;;;5043339;28;20036;-53
2021/04/24 03:53:11;;;;;;;0.47;0.10;;;22.80;34.90;;;;;;5045856;28;20063;-54
2021/04/24 03:55:37;;;;;;;0.40;0.13;;;22.80;34.90;;;;;;5041681;28;20021;-53
2021/04/24 03:58:03;;;;;;;0.43;0.20;;;22.80;34.90;;;;;;5046656;28;20529;-53
2021/04/24 04:00:30;;;;;;;0.73;0.20;;;22.80;34.90;;;;;;5038164;28;20029;-54
2021/04/24 04:03:01;;;;;;;1.30;0.20;;;22.80;34.90;;;;;;5048061;28;20017;-53
2021/04/24 04:05:36;;;;;;;0.75;0.10;;;22.80;34.90;;;;;;5048033;28;20167;-53
2021/04/24 04:08:03;;;;;;;0.70;0.20;;;22.80;34.80;;;;;;5040832;28;20025;-53
2021/04/24 04:10:30;;;;;;;1.27;0.25;;;22.80;34.90;;;;;;5037725;28;20029;-52
2021/04/24 04:12:57;;;;;;;0.73;0.17;;;22.80;34.80;;;;;;5041547;28;20100;-54
2021/04/24 04:15:24;;;;;;;0.32;0.10;;;22.80;34.80;;;;;;5047642;28;20029;-53
2021/04/24 04:17:54;;;;;;;0.40;0.13;;;22.80;34.90;;;;;;5048809;28;20124;-53
2021/04/24 04:20:20;;;;;;;0.60;0.20;;;22.80;34.80;;;;;;5044071;28;20028;-54
2021/04/24 04:22:46;;;;;;;0.70;0.20;;;22.80;34.80;;;;;;5047915;28;20028;-53
2021/04/24 04:25:13;;;;;;;0.60;0.10;;;22.80;34.90;;;;;;5047562;28;20033;-53
2021/04/24 04:27:38;;;;;;;0.75;0.20;;;22.80;34.80;;;;;;5047357;28;20099;-51
2021/04/24 04:30:07;;;;;;;1.75;0.20;;;22.80;34.80;;;;;;5045102;28;20029;-52
2021/04/24 04:32:33;;;;;;;0.32;0.10;;;22.70;34.80;;;;;;5046716;28;20029;-53
2021/04/24 04:34:59;;;;;;;0.77;0.20;;;22.70;34.80;;;;;;5047258;28;20031;-54
2021/04/24 04:37:25;;;;;;;0.38;0.20;;;22.70;34.80;;;;;;5047779;28;20048;-53
2021/04/24 04:39:51;;;;;;;0.63;0.20;;;22.70;34.70;;;;;;5046112;28;20029;-52
2021/04/24 04:42:17;;;;;;;0.85;0.22;;;22.70;34.80;;;;;;5047498;28;20029;-53
2021/04/24 04:44:42;;;;;;;0.63;0.20;;;22.70;34.70;;;;;;5044624;28;20421;-52
2021/04/24 04:47:08;;;;;;;0.38;0.17;;;22.70;34.70;;;;;;5047166;28;20065;-51
2021/04/24 04:49:33;;;;;;;0.57;0.15;;;22.70;35.20;;;;;;5033886;28;20033;-53
2021/04/24 04:51:59;;;;;;;0.90;0.20;;;22.70;35.20;;;;;;5044193;28;20490;-52
2021/04/24 04:54:24;;;;;;;0.65;0.15;;;22.70;34.70;;;;;;5048618;28;20035;-54
2021/04/24 04:56:50;;;;;;;0.47;0.20;;;22.70;34.70;;;;;;5047653;28;20044;-54
2021/04/24 04:59:16;;;;;;;0.40;0.10;;;22.70;34.70;;;;;;5031213;28;20098;-54
2021/04/24 05:01:41;;;;;;;2.42;0.20;;;22.70;34.70;;;;;;5046513;28;20028;-53
2021/04/24 05:04:07;;;;;;;1.20;0.20;;;22.70;34.70;;;;;;5047247;28;20036;-53
2021/04/24 05:06:33;;;;;;;0.40;0.10;;;22.70;34.70;;;;;;5048207;28;20032;-53
2021/04/24 05:08:58;;;;;;;1.33;0.15;;;22.70;34.70;;;;;;5044067;28;20501;-53
2021/04/24 05:11:24;;;;;;;0.60;0.25;;;22.60;34.70;;;;;;5045470;28;20037;-53
2021/04/24 05:13:49;;;;;;;0.30;0.10;;;22.70;34.70;;;;;;5044032;28;20028;-52
2021/04/24 05:16:15;;;;;;;0.30;0.10;;;22.70;34.70;;;;;;5042482;28;20029;-53
2021/04/24 05:18:40;;;;;;;0.85;0.40;;;22.60;34.70;;;;;;5047904;28;20028;-52
2021/04/24 05:21:06;;;;;;;0.40;0.13;;;22.60;34.70;;;;;;5046964;28;20505;-53
2021/04/24 05:23:32;;;;;;;0.70;0.38;;;22.70;34.70;;;;;;5047207;28;20125;-53
2021/04/24 05:25:57;;;;;;;0.77;0.13;;;22.60;34.70;;;;;;5046671;28;20021;-53
2021/04/24 05:28:23;;;;;;;0.65;0.25;;;22.60;34.70;;;;;;5043613;28;20025;-52
2021/04/24 05:30:48;;;;;;;0.45;0.10;;;22.60;34.70;;;;;;5047940;28;20029;-54
2021/04/24 05:33:14;;;;;;;0.50;0.20;;;22.60;34.70;;;;;;5046579;28;20083;-53
2021/04/24 05:35:39;;;;;;;0.45;0.20;;;22.60;35.20;;;;;;5042222;28;20034;-53
2021/04/24 05:38:05;;;;;;;0.95;0.30;;;22.60;34.70;;;;;;5036643;28;20029;-53
2021/04/24 05:40:31;;;;;;;1.48;0.20;;;22.60;34.70;;;;;;5042496;28;20449;-53
2021/04/24 05:42:57;;;;;;;0.57;0.20;;;22.60;34.70;;;;;;5044575;28;20025;-54
2021/04/24 05:45:22;;;;;;;0.60;0.20;;;22.60;34.70;;;;;;5050038;28;20079;-53
2021/04/24 05:47:52;;;;;;;2.03;0.10;;;22.60;34.80;;;;;;5039574;28;20045;-53
2021/04/24 05:50:20;;;;;;;0.40;0.20;;;22.60;34.80;;;;;;5050894;28;20032;-52
2021/04/24 05:52:46;;;;;;;1.42;0.20;;;22.60;34.80;;;;;;5050416;28;20033;-53
2021/04/24 05:55:13;;;;;;;0.70;0.20;;;22.60;34.80;;;;;;5049759;28;20098;-53
2021/04/24 05:57:39;;;;;;;1.27;0.20;;;22.50;34.70;;;;;;5047191;28;20032;-52
2021/04/24 06:00:09;;;;;;;0.70;0.20;;;22.60;34.80;;;;;;5030547;28;20034;-51
2021/04/24 06:02:35;;;;;;;0.45;0.20;;;22.60;34.80;;;;;;5048319;28;20029;-52
2021/04/24 06:05:02;;;;;;;1.30;0.25;;;22.50;34.70;;;;;;5044149;28;20041;-52
2021/04/24 06:07:28;;;;;;;0.73;0.30;;;22.50;34.80;;;;;;5050030;28;20033;-53
2021/04/24 06:09:54;;;;;;;0.68;0.30;;;22.50;34.90;;;;;;5048937;28;20124;-53
2021/04/24 06:12:20;;;;;;;0.50;0.20;;;22.60;34.70;;;;;;5043544;28;20163;-53
2021/04/24 06:14:45;;;;;;;0.50;0.20;;;22.60;34.80;;;;;;5047265;28;20117;-49
2021/04/24 06:17:11;;;;;;;0.45;0.13;;;22.50;34.80;;;;;;5045480;28;20410;-53
2021/04/24 06:19:37;;;;;;;0.50;0.20;;;22.50;34.70;;;;;;5050927;28;20029;-53
2021/04/24 06:22:02;;;;;;;0.95;0.20;;;22.50;35.20;;;;;;5051942;28;20028;-53
2021/04/24 06:24:28;;;;;;;0.65;0.17;;;22.50;34.60;;;;;;5044561;28;20492;-54
2021/04/24 06:26:53;;;;;;;1.30;0.20;;;22.50;34.60;;;;;;5048060;28;20028;-54
2021/04/24 06:29:19;;;;;;;0.80;0.20;;;22.50;34.70;;;;;;5052299;28;20049;-53
2021/04/24 06:31:45;;;;;;;1.00;0.20;;;22.50;34.70;;;;;;5040272;28;20083;-54
2021/04/24 06:34:10;;;;;;;0.43;0.10;;;22.50;34.60;;;;;;5045989;28;20041;-53
2021/04/24 06:36:36;;;;;;;0.57;0.15;;;22.50;34.80;;;;;;5044762;28;20057;-53
2021/04/24 06:39:05;;;;;;;0.75;0.20;;;22.50;34.70;;;;;;5044953;28;20025;-52
2021/04/24 06:41:30;;;;;;;1.45;0.20;;;22.50;34.80;;;;;;5042791;28;20042;-54
2021/04/24 06:43:56;;;;;;;1.60;0.40;;;22.50;34.60;;;;;;5041079;28;20053;-52
2021/04/24 06:46:21;;;;;;;1.75;0.20;;;22.50;34.50;;;;;;5046093;28;20037;-53
2021/04/24 06:48:47;;;;;;;0.77;0.25;;;22.50;34.70;;;;;;5042936;28;20084;-54
2021/04/24 06:51:12;;;;;;;2.25;0.28;;;22.50;34.80;;;;;;5047133;28;20043;-52
2021/04/24 06:53:40;;;;;;;3.50;0.30;;;22.50;34.70;;;;;;5038252;28;20482;-52
2021/04/24 06:56:06;;;;;;;0.77;0.25;;;22.50;34.80;;;;;;5046556;28;20040;-53
2021/04/24 06:58:31;;;;;;;0.75;0.22;;;22.50;34.90;;;;;;5056254;28;20025;-54
2021/04/24 07:00:57;;;;;;;2.83;0.30;;;22.50;35.00;;;;;;5030179;28;20072;-54
2021/04/24 07:03:23;;;;;;;2.40;0.30;;;22.50;34.90;;;;;;5043342;28;20112;-53
2021/04/24 07:05:49;;;;;;;3.53;0.60;;;22.50;35.00;;;;;;5048163;28;20032;-55
2021/04/24 07:08:15;;;;;;;2.15;0.35;;;22.50;35.10;;;;;;5049132;28;20494;-53
2021/04/24 07:10:40;;;;;;;2.08;0.30;;;22.50;35.10;;;;;;5049478;28;20086;-55
2021/04/24 07:13:06;;;;;;;1.58;0.30;;;22.50;35.10;;;;;;5049028;28;20052;-54
2021/04/24 07:15:31;;;;;;;0.90;0.38;;;22.50;35.10;;;;;;5042179;28;20025;-54
2021/04/24 07:17:57;;;;;;;1.75;0.45;;;22.50;35.10;;;;;;5048577;28;20036;-54
2021/04/24 07:20:22;;;;;;;0.80;0.20;;;22.50;35.10;;;;;;5045326;28;20150;-54
2021/04/24 07:22:48;;;;;;;1.40;0.40;;;22.50;35.10;;;;;;5049008;28;20123;-53
2021/04/24 07:25:14;;;;;;;2.03;0.40;;;22.50;35.10;;;;;;5048750;28;20036;-54
2021/04/24 07:27:40;;;;;;;0.93;0.17;;;22.50;35.10;;;;;;5049096;28;20029;-54
2021/04/24 07:30:08;;;;;;;2.28;0.30;;;22.50;35.10;;;;;;5047209;28;20029;-54
2021/04/24 07:32:34;;;;;;;0.45;0.22;;;22.50;35.10;;;;;;5046032;28;20418;-53
2021/04/24 07:35:00;;;;;;;1.02;0.30;;;22.50;35.10;;;;;;5044364;28;20040;-54
2021/04/24 07:37:27;;;;;;;2.88;0.52;;;22.60;35.10;;;;;;5044836;28;20036;-52
2021/04/24 07:39:52;;;;;;;3.42;0.32;;;22.60;34.50;;;;;;5047697;28;20044;-52
2021/04/24 07:42:19;;;;;;;0.43;0.28;;;22.60;34.80;;;;;;5049002;28;20024;-50
2021/04/24 07:44:44;;;;;;;1.30;0.30;;;22.60;35.00;;;;;;5048648;28;20032;-50
2021/04/24 07:47:10;;;;;;;1.20;0.30;;;22.70;35.20;;;;;;5048558;28;20029;-51
2021/04/24 07:49:37;;;;;;;2.42;0.30;;;22.70;35.20;;;;;;5036808;28;20021;-43
2021/04/24 07:52:05;;;;;;;1.58;0.30;;;22.80;35.40;;;;;;5041395;28;20105;-45
2021/04/24 07:54:31;;;;;;;1.42;0.40;;;22.80;35.40;;;;;;5048353;28;20510;-49
2021/04/24 07:56:58;;;;;;;1.75;0.40;;;22.80;35.50;;;;;;5045854;28;20438;-49
2021/04/24 07:59:23;;;;;;;1.27;0.45;;;22.80;35.80;;;;;;5048683;28;20055;-50
2021/04/24 08:01:49;;;;;;;1.80;0.60;;;22.80;36.10;;;;;;5048105;28;20446;-49
2021/04/24 08:04:15;;;;;;;1.10;0.52;;;22.80;36.10;;;;;;5047804;28;20036;-49
2021/04/24 08:06:41;;;;;;;1.38;0.47;;;22.80;36.00;;;;;;5047757;28;20024;-49
2021/04/24 08:09:06;;;;;;;1.60;0.45;;;22.70;35.90;;;;;;5048576;28;20025;-48
2021/04/24 08:11:33;;;;;;;2.60;0.47;;;22.70;35.80;;;;;;5045091;28;20374;-49
2021/04/24 08:13:58;;;;;;;1.30;0.60;;;22.70;35.80;;;;;;5047061;28;20091;-49
2021/04/24 08:16:24;;;;;;;1.83;0.50;;;22.80;35.80;;;;;;5048326;28;20029;-49
2021/04/24 08:18:49;;;;;;;1.80;0.75;;;22.80;35.70;;;;;;5043289;28;20045;-49
2021/04/24 08:21:16;;;;;;;0.65;0.40;;;22.80;35.60;;;;;;5046815;28;20033;-48
2021/04/24 08:23:42;;;;;;;0.90;0.40;;;22.80;35.60;;;;;;5048312;28;20052;-50
2021/04/24 08:26:08;;;;;;;1.60;0.73;;;22.80;35.50;;;;;;5046983;28;20059;-50
2021/04/24 08:28:33;;;;;;;1.63;0.80;;;22.80;35.50;;;;;;5036928;28;20025;-51
2021/04/24 08:30:59;;;;;;;2.58;0.68;;;22.80;35.50;;;;;;5032322;28;20061;-50
2021/04/24 08:33:24;;;;;;;1.10;0.93;;;22.80;35.40;;;;;;5040105;28;20029;-51
2021/04/24 08:35:50;;;;;;;4.03;1.45;;;22.80;35.40;;;;;;5046494;28;20041;-50
2021/04/24 08:38:16;;;;;;;2.85;0.77;;;22.90;35.40;;;;;;5045891;28;20033;-49
2021/04/24 08:40:41;;;;;;;0.98;0.68;;;22.90;35.30;;;;;;5031396;28;20037;-50
2021/04/24 08:43:07;;;;;;;2.03;0.93;;;22.90;35.30;;;;;;5038840;28;20083;-49
2021/04/24 08:45:35;;;;;;;0.95;0.65;;;22.90;35.30;;;;;;5048664;28;20032;-51
2021/04/24 08:48:02;;;;;;;1.98;0.70;;;22.90;35.30;;;;;;5043305;28;20030;-48
2021/04/24 08:50:29;;;;;;;2.78;0.98;;;22.90;35.30;;;;;;5044297;28;20452;-47
2021/04/24 08:52:56;;;;;;;4.78;1.08;;;22.90;35.20;;;;;;5048827;28;20025;-50
2021/04/24 08:55:24;;;;;;;1.45;0.93;;;22.90;35.20;;;;;;5045675;28;20041;-48
2021/04/24 08:57:51;;;;;;;2.70;0.95;;;22.90;35.20;;;;;;5030807;28;20030;-50
2021/04/24 09:00:20;;;;;;;4.10;1.20;;;23.00;35.30;;;;;;5042577;28;20850;-48
2021/04/24 09:02:47;;;;;;;1.40;0.82;;;23.00;35.30;;;;;;5046393;28;20055;-50
2021/04/24 09:05:16;;;;;;;3.25;1.10;;;23.00;35.30;;;;;;5048606;28;20074;-50
2021/04/24 09:07:42;;;;;;;2.28;1.13;;;23.00;35.20;;;;;;5042704;28;20446;-51
2021/04/24 09:10:16;;;;;;;4.30;1.70;;;23.00;35.20;;;;;;5038348;28;20390;-50
2021/04/24 09:12:46;;;;;;;2.65;1.45;;;23.00;35.20;;;;;;5046397;28;20116;-50
2021/04/24 09:15:21;;;;;;;1.38;1.10;;;23.00;35.20;;;;;;5046767;28;20468;-51
2021/04/24 09:17:48;;;;;;;2.50;1.30;;;23.00;35.20;;;;;;5046510;28;20037;-51
2021/04/24 09:20:16;;;;;;;1.98;1.00;;;23.10;35.20;;;;;;5048202;28;20110;-50
2021/04/24 09:22:41;;;;;;;2.33;1.40;;;23.00;35.20;;;;;;5052373;28;20033;-51
2021/04/24 09:25:08;;;;;;;1.77;1.13;;;23.10;35.20;;;;;;5051090;28;20025;-49
2021/04/24 09:27:42;;;;;;;1.60;1.20;;;23.10;35.20;;;;;;5042161;28;20033;-51
2021/04/24 09:30:26;;;;;;;3.95;2.13;;;23.00;35.20;;;;;;5043525;28;20035;-51
2021/04/24 09:32:52;;;;;;;3.15;1.10;;;23.00;35.20;;;;;;5048360;28;20048;-51
2021/04/24 09:35:21;;;;;;;1.90;1.58;;;23.10;35.30;;;;;;5050910;28;20783;-52
2021/04/24 09:38:01;;;;;;;2.88;1.70;;;23.10;35.30;;;;;;5051884;28;20108;-49
2021/04/24 09:40:28;;;;;;;1.83;1.50;;;23.10;35.30;;;;;;5052216;28;20118;-51
2021/04/24 09:43:06;;;;;;;2.05;1.63;;;23.10;35.30;;;;;;5052044;28;20617;-51
2021/04/24 09:45:42;;;;;;;2.63;1.80;;;23.10;35.30;;;;;;5051321;28;20090;-50
2021/04/24 09:48:26;;;;;;;2.50;1.70;;;23.10;35.30;;;;;;5050918;28;20021;-49
2021/04/24 09:50:53;;;;;;;3.72;2.28;;;23.10;35.30;;;;;;5052296;28;20100;-50
2021/04/24 09:53:24;;;;;;;2.70;2.03;;;23.10;35.30;;;;;;5051156;28;20095;-52
2021/04/24 09:55:51;;;;;;;2.80;1.70;;;23.10;35.30;;;;;;5044627;28;20106;-49
2021/04/24 09:58:43;;;;;;;2.00;1.50;;;23.10;35.30;;;;;;5051221;28;20025;-48
2021/04/24 10:01:26;;;;;;;2.47;1.45;;;23.10;35.30;;;;;;5038255;28;20041;-50
2021/04/24 10:03:53;;;;;;;2.75;1.33;;;23.10;35.30;;;;;;5053333;28;20078;-51
2021/04/24 10:06:23;;;;;;;1.90;1.38;;;23.20;35.40;;;;;;5052137;28;20032;-49
2021/04/24 10:08:50;;;;;;;2.70;1.30;;;23.20;35.40;;;;;;5043596;28;20025;-49
2021/04/24 10:11:26;;;;;;;6.75;1.13;;;23.20;35.40;;;;;;5050737;28;20383;-50
2021/04/24 10:13:52;;;;;;;1.55;0.95;;;23.20;35.40;;;;;;5048451;28;20418;-50
2021/04/24 10:16:35;;;;;;;1.20;0.77;;;23.20;35.40;;;;;;5047851;28;20029;-49
2021/04/24 10:19:03;;;;;;;1.85;0.57;;;23.20;35.40;;;;;;5049876;28;20158;-49
2021/04/24 10:21:30;;;;;;;1.88;1.00;;;23.20;35.40;;;;;;5051452;28;20029;-49
2021/04/24 10:23:57;;;;;;;1.50;0.50;;;23.20;35.40;;;;;;5046197;28;20029;-49
2021/04/24 10:26:25;;;;;;;1.67;0.70;;;23.20;35.30;;;;;;5035962;28;20517;-49
2021/04/24 10:28:53;;;;;;;1.15;0.63;;;23.20;35.40;;;;;;5043002;28;20036;-50
2021/04/24 10:31:19;;;;;;;1.83;0.70;;;23.20;35.30;;;;;;5050254;28;20112;-49
2021/04/24 10:33:44;;;;;;;2.03;0.65;;;23.20;35.90;;;;;;5050036;28;20467;-50
2021/04/24 10:36:11;;;;;;;1.10;0.60;;;23.20;35.30;;;;;;5049980;28;20078;-50
2021/04/24 10:38:42;;;;;;;1.17;0.70;;;23.20;35.30;;;;;;5049842;28;20031;-49
2021/04/24 10:41:09;;;;;;;1.17;0.38;;;23.20;35.30;;;;;;5049780;28;20021;-51
2021/04/24 10:43:35;;;;;;;2.38;0.60;;;23.30;35.40;;;;;;5044189;28;20134;-49
2021/04/24 10:46:27;;;;;;;1.10;0.40;;;23.20;35.30;;;;;;5044731;28;20035;-49
2021/04/24 10:49:21;;;;;;;1.10;0.43;;;23.20;35.30;;;;;;5044479;28;20442;-50
2021/04/24 10:51:51;;;;;;;2.55;0.28;;;23.30;35.40;;;;;;5050038;28;20029;-49
2021/04/24 10:54:17;;;;;;;1.40;0.30;;;23.30;35.40;;;;;;5046830;28;20494;-50
2021/04/24 10:56:43;;;;;;;1.52;0.43;;;23.30;35.40;;;;;;5047113;28;20025;-51
2021/04/24 10:59:26;;;;;;;0.93;0.28;;;23.30;35.40;;;;;;5041307;28;20025;-50
2021/04/24 11:02:08;;;;;;;1.05;0.32;;;23.30;35.40;;;;;;5038594;28;20025;-50
2021/04/24 11:04:45;;;;;;;1.55;0.38;;;23.30;35.30;;;;;;5047604;28;20433;-50
2021/04/24 11:07:28;;;;;;;0.75;0.20;;;23.30;35.30;;;;;;5049212;28;20060;-49
2021/04/24 11:10:12;;;;;;;0.93;0.30;;;23.30;35.30;;;;;;5048890;28;20078;-51
2021/04/24 11:12:41;;;;;;;0.45;0.20;;;23.30;35.30;;;;;;5047704;28;20061;-49
2021/04/24 11:15:09;;;;;;;0.68;0.25;;;23.30;35.30;;;;;;5049111;28;20487;-50
2021/04/24 11:17:37;;;;;;;1.75;0.20;;;23.30;35.30;;;;;;5049025;28;20497;-49
2021/04/24 11:20:03;;;;;;;0.40;0.10;;;23.40;35.30;;;;;;5046947;28;20041;-49
2021/04/24 11:22:36;;;;;;;0.70;0.20;;;23.30;35.20;;;;;;5041652;28;20558;-49
2021/04/24 11:25:17;;;;;;;0.55;0.10;;;23.40;35.30;;;;;;5046348;28;20033;-49
2021/04/24 11:28:05;;;;;;;0.87;0.20;;;23.40;35.20;;;;;;5045657;28;20013;-49
2021/04/24 11:30:54;;;;;;;0.60;0.10;;;23.40;35.20;;;;;;5042738;28;20082;-45
2021/04/24 11:33:39;;;;;;;0.40;0.10;;;23.40;35.20;;;;;;5045048;28;20043;-49
2021/04/24 11:36:18;;;;;;;0.60;0.20;;;23.40;35.20;;;;;;5048485;28;20033;-50
2021/04/24 11:38:56;;;;;;;0.95;0.20;;;23.40;35.20;;;;;;5042505;28;20032;-50
2021/04/24 11:41:43;;;;;;;0.45;0.10;;;23.40;35.10;;;;;;5045610;28;20091;-49
2021/04/24 11:44:18;;;;;;;0.50;0.10;;;23.40;35.20;;;;;;5041234;28;20028;-50
2021/04/24 11:46:45;;;;;;;1.20;0.20;;;23.40;35.10;;;;;;5048529;28;20021;-49
2021/04/24 11:49:15;;;;;;;1.30;0.13;;;23.40;35.10;;;;;;5047742;28;20102;-49
2021/04/24 11:52:19;;;;;;;0.50;0.10;;;23.40;35.10;;;;;;5044416;28;20078;-51
2021/04/24 11:54:45;;;;;;;2.92;0.17;;;23.50;35.20;;;;;;5046469;28;20033;-50
2021/04/24 11:57:13;;;;;;;0.60;0.10;;;23.50;35.20;;;;;;5045745;28;20027;-49
2021/04/24 11:59:41;;;;;;;2.92;0.30;;;23.50;35.20;;;;;;5045614;28;20035;-50
2021/04/24 12:02:23;;;;;;;0.52;0.20;;;23.50;35.20;;;;;;5045491;28;20020;-49
2021/04/24 12:05:00;;;;;;;1.27;0.28;;;23.50;35.20;;;;;;5045146;28;20134;-50
2021/04/24 12:07:27;;;;;;;0.85;0.17;;;23.50;35.30;;;;;;5047782;28;20028;-51
2021/04/24 12:09:52;;;;;;;1.40;0.22;;;23.50;35.30;;;;;;5051988;28;20035;-50
2021/04/24 12:12:39;;;;;;;0.35;0.10;;;23.50;35.30;;;;;;5047500;28;20112;-50
2021/04/24 12:15:06;;;;;;;1.15;0.10;;;23.50;35.30;;;;;;5048951;28;20091;-50
2021/04/24 12:17:33;;;;;;;0.80;0.22;;;23.50;35.30;;;;;;5049049;28;20033;-50
2021/04/24 12:19:59;;;;;;;0.73;0.10;;;23.50;35.30;;;;;;5039677;28;20037;-50
2021/04/24 12:22:25;;;;;;;0.60;0.15;;;23.50;35.30;;;;;;5041474;28;20021;-50
2021/04/24 12:24:57;;;;;;;3.08;0.20;;;23.50;35.30;;;;;;5042610;28;20036;-51
2021/04/24 12:27:27;;;;;;;0.80;0.10;;;23.50;35.40;;;;;;5047167;28;20090;-51
2021/04/24 12:29:55;;;;;;;1.00;0.20;;;23.50;35.30;;;;;;5044419;28;20037;-50
2021/04/24 12:32:23;;;;;;;1.33;0.20;;;23.50;35.30;;;;;;5039893;28;20275;-50
2021/04/24 12:34:49;;;;;;;0.95;0.20;;;23.50;35.40;;;;;;5033100;28;20033;-50
2021/04/24 12:37:21;;;;;;;0.90;0.20;;;23.50;35.30;;;;;;5043979;28;20733;-51
2021/04/24 12:40:04;;;;;;;2.55;0.20;;;23.50;35.30;;;;;;5047059;28;20069;-49
2021/04/24 12:42:29;;;;;;;1.98;0.28;;;23.50;35.30;;;;;;5041192;28;20382;-51
2021/04/24 12:44:59;;;;;;;3.80;0.10;;;23.50;35.30;;;;;;5047714;28;20187;-50
2021/04/24 12:47:25;;;;;;;1.88;0.20;;;23.60;35.40;;;;;;5048120;28;20029;-51
2021/04/24 12:49:53;;;;;;;2.10;0.30;;;23.60;35.40;;;;;;5047610;28;20036;-51
2021/04/24 12:52:18;;;;;;;1.85;0.30;;;23.50;35.90;;;;;;5044041;28;20498;-51